Time;durP1;ratioP1;P1;durP2;ratioP2;P2;SDS_P1;SDS_P2;PMS_P1;PMS_P2;Temp;Humidity;BMP_temperature;BMP_pressure;BME280_temperature;BME280_humidity;BME280_pressure;Samples;Min_cycle;Max_cycle;Signal;HPM_P1;HPM_P2
2021/01/05 05:20:39;;;;;;;1.40;1.40;;;-10.40;90.10;;;;;;5146219;23;20058;-73
2021/01/05 05:23:25;;;;;;;1.80;1.70;;;-10.40;89.70;;;;;;5016130;28;20034;-73
2021/01/05 05:26:12;;;;;;;1.50;1.40;;;-10.30;88.90;;;;;;5016211;28;20044;-74
2021/01/05 05:29:01;;;;;;;1.50;1.40;;;-10.20;88.70;;;;;;5016223;28;20049;-75
2021/01/05 05:31:31;;;;;;;2.30;1.30;;;-10.20;88.00;;;;;;5016288;28;20491;-73
2021/01/05 05:34:01;;;;;;;1.75;1.30;;;-10.20;87.20;;;;;;5016105;28;20065;-75
2021/01/05 05:36:44;;;;;;;1.70;1.60;;;-10.20;86.80;;;;;;5016166;28;20041;-71
2021/01/05 05:39:37;;;;;;;1.42;1.33;;;-10.20;86.60;;;;;;5015720;28;20492;-73
2021/01/05 05:42:31;;;;;;;2.42;1.73;;;-10.00;98.00;;;;;;5016149;28;20061;-70
2021/01/05 05:45:02;;;;;;;1.60;1.50;;;-9.40;99.90;;;;;;5014590;28;20036;-72
2021/01/05 05:48:11;;;;;;;4.10;2.35;;;-9.20;99.90;;;;;;5015465;28;20504;-73
2021/01/05 05:51:04;;;;;;;1.80;1.70;;;-9.50;93.70;;;;;;5014246;28;20493;-72
2021/01/05 05:53:36;;;;;;;1.88;1.77;;;-9.80;90.10;;;;;;5003198;28;20041;-73
2021/01/05 05:56:07;;;;;;;1.35;1.25;;;-10.00;87.70;;;;;;5012918;28;20017;-73
2021/01/05 05:58:38;;;;;;;3.05;2.20;;;-10.10;86.70;;;;;;5013902;28;20566;-73
2021/01/05 06:01:16;;;;;;;2.15;1.85;;;-10.20;86.30;;;;;;5012625;28;20396;-73
2021/01/05 06:03:43;;;;;;;1.80;1.70;;;-10.20;85.60;;;;;;5014353;28;20026;-71
2021/01/05 06:06:09;;;;;;;1.75;1.65;;;-10.40;84.80;;;;;;5014574;28;20088;-71
2021/01/05 06:08:34;;;;;;;1.55;1.45;;;-10.40;85.10;;;;;;5012341;28;20488;-72
2021/01/05 06:11:02;;;;;;;2.08;1.50;;;-10.50;84.40;;;;;;5013264;28;20376;-72
2021/01/05 06:13:28;;;;;;;1.48;1.38;;;-10.50;84.10;;;;;;5014817;28;20408;-71
2021/01/05 06:15:53;;;;;;;1.58;1.48;;;-10.50;83.70;;;;;;5014399;28;20014;-70
2021/01/05 06:18:19;;;;;;;1.70;1.60;;;-10.50;84.10;;;;;;5012063;28;20022;-74
2021/01/05 06:20:46;;;;;;;1.77;1.40;;;-10.60;83.80;;;;;;4995497;28;20042;-77
2021/01/05 06:23:12;;;;;;;1.45;1.35;;;-10.60;83.50;;;;;;4995594;28;20019;-77
2021/01/05 06:25:38;;;;;;;1.70;1.60;;;-10.60;83.30;;;;;;4995380;28;20034;-86
2021/01/05 06:28:05;;;;;;;1.80;1.70;;;-10.70;83.10;;;;;;4995886;28;20026;-76
2021/01/05 06:30:31;;;;;;;1.70;1.60;;;-10.50;99.90;;;;;;4995223;28;20493;-76
2021/01/05 06:32:57;;;;;;;1.70;1.60;;;-10.10;99.90;;;;;;4995047;28;20030;-75
2021/01/05 06:35:23;;;;;;;2.75;1.40;;;-10.20;92.30;;;;;;4995026;28;20037;-75
2021/01/05 06:37:50;;;;;;;1.60;1.50;;;-10.50;87.50;;;;;;4994947;28;20026;-76
2021/01/05 06:40:19;;;;;;;1.58;1.48;;;-10.60;86.40;;;;;;4994837;28;20030;-76
2021/01/05 06:42:45;;;;;;;1.70;1.60;;;-10.70;86.20;;;;;;4994837;28;20030;-76
2021/01/05 06:45:17;;;;;;;1.77;1.67;;;-10.70;85.90;;;;;;4994899;28;20114;-76
2021/01/05 06:47:43;;;;;;;1.90;1.80;;;-10.80;84.90;;;;;;4995132;28;20030;-76
2021/01/05 06:50:09;;;;;;;1.75;1.65;;;-10.90;85.50;;;;;;4994902;28;20495;-75
2021/01/05 06:52:34;;;;;;;1.83;1.73;;;-10.90;86.00;;;;;;4994960;28;20110;-75
2021/01/05 06:55:00;;;;;;;2.85;2.17;;;-10.80;85.80;;;;;;4994878;28;20117;-78
2021/01/05 06:57:26;;;;;;;1.90;1.80;;;-10.10;99.90;;;;;;4995112;28;20482;-74
2021/01/05 06:59:51;;;;;;;4.03;1.92;;;-9.10;99.90;;;;;;4994617;28;20027;-74
2021/01/05 07:02:17;;;;;;;2.95;1.70;;;-8.90;99.90;;;;;;4994896;28;20033;-73
2021/01/05 07:04:43;;;;;;;2.38;1.77;;;-9.40;99.00;;;;;;4994782;28;20030;-75
2021/01/05 07:07:09;;;;;;;7.20;2.97;;;-10.00;93.80;;;;;;4994883;28;20030;-75
2021/01/05 07:09:35;;;;;;;2.97;2.33;;;-10.20;92.40;;;;;;4976200;28;20764;-74
2021/01/05 07:12:00;;;;;;;2.30;1.95;;;-10.40;92.00;;;;;;4974804;28;20039;-77
2021/01/05 07:14:27;;;;;;;2.35;2.15;;;-10.40;91.20;;;;;;4973808;28;20019;-80
2021/01/05 07:16:53;;;;;;;2.53;2.33;;;-10.40;90.90;;;;;;4985578;28;20050;-75
2021/01/05 07:19:19;;;;;;;2.58;2.20;;;-10.40;90.60;;;;;;4993370;28;20490;-76
2021/01/05 07:21:45;;;;;;;2.28;1.92;;;-10.40;91.10;;;;;;4992616;28;20053;-78
2021/01/05 07:24:11;;;;;;;1.88;1.75;;;-10.30;91.00;;;;;;4993987;28;20076;-78
2021/01/05 07:26:42;;;;;;;1.75;1.65;;;-10.30;90.60;;;;;;4994028;28;20026;-77
2021/01/05 07:29:08;;;;;;;2.55;2.20;;;-10.20;89.70;;;;;;4994028;28;20478;-77
2021/01/05 07:31:34;;;;;;;2.63;2.10;;;-10.30;88.30;;;;;;4993475;28;20041;-78
2021/01/05 07:34:00;;;;;;;2.40;1.98;;;-10.30;88.10;;;;;;4993868;28;20481;-79
2021/01/05 07:36:30;;;;;;;2.42;1.90;;;-10.30;87.30;;;;;;4993873;28;20045;-78
2021/01/05 07:38:56;;;;;;;2.00;1.90;;;-10.30;86.70;;;;;;4993826;28;20432;-74
2021/01/05 07:41:22;;;;;;;2.22;2.03;;;-10.30;85.90;;;;;;4992408;28;20034;-73
2021/01/05 07:43:48;;;;;;;2.97;1.85;;;-10.30;85.70;;;;;;4993192;28;20105;-73
2021/01/05 07:46:14;;;;;;;1.77;1.65;;;-10.40;85.70;;;;;;4992649;28;20508;-72
2021/01/05 07:48:40;;;;;;;1.80;1.70;;;-10.50;85.60;;;;;;4992003;28;20026;-69
2021/01/05 07:51:07;;;;;;;1.65;1.55;;;-10.60;86.10;;;;;;4992019;28;20027;-70
2021/01/05 07:53:33;;;;;;;1.80;1.70;;;-10.80;86.60;;;;;;4993514;28;20367;-69
2021/01/05 07:55:58;;;;;;;1.95;1.80;;;-10.90;87.50;;;;;;4992542;28;20028;-79
2021/01/05 07:58:24;;;;;;;1.63;1.52;;;-10.90;88.20;;;;;;4993066;28;20056;-82
2021/01/05 08:00:50;;;;;;;1.70;1.60;;;-10.90;88.40;;;;;;4993364;28;20045;-77
2021/01/05 08:03:16;;;;;;;1.80;1.70;;;-11.00;88.40;;;;;;4993630;28;20018;-77
2021/01/05 08:05:41;;;;;;;1.48;1.40;;;-11.10;88.70;;;;;;4993853;28;20470;-79
2021/01/05 08:08:07;;;;;;;1.25;1.25;;;-11.00;88.80;;;;;;4993550;28;20026;-79
2021/01/05 08:10:35;;;;;;;1.88;1.77;;;-11.10;88.50;;;;;;4993823;28;20034;-77
2021/01/05 08:13:06;;;;;;;1.70;1.60;;;-11.10;88.90;;;;;;4990667;28;20018;-78
2021/01/05 08:15:32;;;;;;;1.60;1.50;;;-11.10;89.00;;;;;;4992785;28;20030;-79
2021/01/05 08:17:59;;;;;;;1.85;1.75;;;-11.10;89.10;;;;;;4991929;28;20381;-79
2021/01/05 08:20:28;;;;;;;1.70;1.60;;;-11.10;88.90;;;;;;4992510;28;20055;-76
2021/01/05 08:22:54;;;;;;;2.08;1.88;;;-11.10;89.00;;;;;;4973580;28;20422;-78
2021/01/05 08:25:21;;;;;;;1.83;1.73;;;-11.10;89.20;;;;;;4974198;28;20037;-77
2021/01/05 08:27:49;;;;;;;1.70;1.60;;;-11.10;89.10;;;;;;4993181;28;20030;-79
2021/01/05 08:30:19;;;;;;;6.15;2.92;;;-11.10;89.10;;;;;;4992867;28;20072;-78
2021/01/05 08:32:46;;;;;;;4.70;2.22;;;-11.10;88.90;;;;;;4993009;28;20069;-77
2021/01/05 08:35:14;;;;;;;2.47;2.00;;;-11.10;89.30;;;;;;4992528;28;20412;-78
2021/01/05 08:37:40;;;;;;;4.18;2.80;;;-11.10;88.80;;;;;;4992599;28;20026;-78
2021/01/05 08:40:10;;;;;;;2.92;1.95;;;-11.10;88.60;;;;;;4992041;28;20022;-78
2021/01/05 08:42:36;;;;;;;4.88;3.15;;;-11.10;88.60;;;;;;4992572;28;20037;-80
2021/01/05 08:45:04;;;;;;;2.65;2.35;;;-11.10;88.60;;;;;;4991442;28;20053;-80
2021/01/05 08:47:30;;;;;;;3.38;2.72;;;-11.10;88.80;;;;;;4991978;28;20053;-71
2021/01/05 08:49:56;;;;;;;3.35;2.80;;;-11.00;88.70;;;;;;4992021;28;20022;-75
2021/01/05 08:52:21;;;;;;;4.90;3.63;;;-10.90;88.80;;;;;;4989460;28;20037;-78
2021/01/05 08:54:47;;;;;;;3.22;2.80;;;-10.90;87.80;;;;;;4991492;28;20023;-74
2021/01/05 08:57:14;;;;;;;3.08;2.38;;;-10.80;87.10;;;;;;4992285;28;20026;-79
2021/01/05 08:59:40;;;;;;;2.00;1.80;;;-10.80;87.30;;;;;;4992637;28;20026;-73
2021/01/05 09:02:08;;;;;;;2.88;2.22;;;-10.90;86.50;;;;;;4992463;28;20064;-77
2021/01/05 09:04:34;;;;;;;4.82;2.90;;;-10.90;87.10;;;;;;4990083;28;20023;-77
2021/01/05 09:07:01;;;;;;;7.15;3.33;;;-10.90;87.50;;;;;;4992636;28;20030;-75
2021/01/05 09:09:26;;;;;;;2.75;2.20;;;-10.90;86.90;;;;;;4992690;28;20019;-75
2021/01/05 09:11:54;;;;;;;3.28;2.13;;;-11.00;86.90;;;;;;4992316;28;20033;-75
2021/01/05 09:14:20;;;;;;;1.77;1.67;;;-11.00;87.40;;;;;;4992594;28;20018;-80
2021/01/05 09:16:46;;;;;;;1.83;1.60;;;-11.00;87.70;;;;;;4992447;28;20854;-76
2021/01/05 09:19:12;;;;;;;1.60;1.50;;;-10.80;99.90;;;;;;4991611;28;20126;-76
2021/01/05 09:21:38;;;;;;;2.20;2.00;;;-10.70;94.10;;;;;;4992588;28;20030;-76
2021/01/05 09:24:04;;;;;;;2.10;1.90;;;-10.80;91.10;;;;;;4992005;28;20417;-76
2021/01/05 09:26:32;;;;;;;1.80;1.70;;;-10.80;90.20;;;;;;4992010;28;20085;-77
2021/01/05 09:28:59;;;;;;;1.70;1.60;;;-10.90;89.50;;;;;;4991873;28;20050;-76
2021/01/05 09:31:25;;;;;;;1.77;1.67;;;-11.00;89.20;;;;;;4992160;28;20031;-77
2021/01/05 09:33:52;;;;;;;1.55;1.45;;;-11.10;89.50;;;;;;4992329;28;20026;-80
2021/01/05 09:36:18;;;;;;;2.83;2.00;;;-10.10;99.90;;;;;;4992653;28;20042;-74
2021/01/05 09:38:44;;;;;;;2.10;1.90;;;-9.10;99.90;;;;;;4991069;28;20042;-71
2021/01/05 09:41:25;;;;;;;2.58;1.90;;;-9.60;99.90;;;;;;4992048;28;20501;-76
2021/01/05 09:43:51;;;;;;;;;;;-9.30;99.90;;;;;;4992961;28;20023;-74
2021/01/05 09:46:18;;;;;;;3.45;1.60;;;-9.90;95.30;;;;;;4991803;28;19917;-75
2021/01/05 09:48:44;;;;;;;1.70;1.60;;;-10.30;94.00;;;;;;4991854;28;20152;-75
2021/01/05 09:51:10;;;;;;;2.53;1.70;;;-10.70;92.20;;;;;;4991315;28;20022;-75
2021/01/05 09:53:39;;;;;;;1.95;1.70;;;-10.80;91.30;;;;;;4992044;28;20031;-75
2021/01/05 09:56:05;;;;;;;1.80;1.70;;;-10.80;91.10;;;;;;4992037;28;20062;-78
2021/01/05 09:58:31;;;;;;;1.88;1.77;;;-10.90;90.50;;;;;;4992010;28;20029;-75
2021/01/05 10:00:57;;;;;;;2.67;2.10;;;-11.00;90.30;;;;;;4991990;28;20034;-74
2021/01/05 10:03:22;;;;;;;1.88;1.77;;;-11.10;90.00;;;;;;4992521;28;20541;-75
2021/01/05 10:05:48;;;;;;;2.88;2.00;;;-11.10;90.00;;;;;;4995869;28;20032;-76
2021/01/05 10:08:14;;;;;;;3.00;2.08;;;-11.20;89.90;;;;;;4995257;28;20600;-74
2021/01/05 10:10:39;;;;;;;2.88;2.10;;;-11.20;89.90;;;;;;4995254;28;20026;-76
2021/01/05 10:13:05;;;;;;;8.18;3.40;;;-11.30;89.60;;;;;;4995010;28;20030;-78
2021/01/05 10:15:31;;;;;;;2.13;1.88;;;-11.30;89.30;;;;;;4995845;28;20027;-78
2021/01/05 10:17:57;;;;;;;2.30;2.10;;;-11.40;89.70;;;;;;4998923;28;20498;-77
2021/01/05 10:20:22;;;;;;;1.75;1.65;;;-11.40;90.00;;;;;;4994444;28;20054;-77
2021/01/05 10:22:49;;;;;;;2.78;1.80;;;-11.50;90.10;;;;;;4995224;28;20030;-76
2021/01/05 10:25:15;;;;;;;2.78;2.08;;;-11.40;90.10;;;;;;4994748;28;20030;-78
2021/01/05 10:27:41;;;;;;;2.38;1.90;;;-11.40;90.10;;;;;;4995085;28;20081;-76
2021/01/05 10:30:09;;;;;;;2.60;2.25;;;-11.40;90.00;;;;;;4994939;28;20474;-76
2021/01/05 10:32:35;;;;;;;3.50;2.22;;;-11.40;89.90;;;;;;4995289;28;20031;-73
2021/01/05 10:35:02;;;;;;;3.10;2.03;;;-11.50;88.40;;;;;;4995151;28;20022;-74
2021/01/05 10:37:27;;;;;;;2.35;2.15;;;-11.50;89.90;;;;;;4995465;28;20385;-77
2021/01/05 10:39:53;;;;;;;2.53;2.33;;;-11.60;88.90;;;;;;4994269;28;20034;-76
2021/01/05 10:42:19;;;;;;;3.92;2.85;;;-11.60;89.20;;;;;;4995003;28;20019;-78
2021/01/05 10:44:44;;;;;;;4.05;2.40;;;-11.70;89.20;;;;;;4994601;28;20018;-76
2021/01/05 10:47:14;;;;;;;2.53;2.20;;;-11.60;89.10;;;;;;4994659;28;20428;-76
2021/01/05 10:49:43;;;;;;;2.30;2.10;;;-11.70;88.50;;;;;;4994665;28;20026;-76
2021/01/05 10:52:15;;;;;;;4.45;2.10;;;-11.70;88.50;;;;;;4994902;28;20414;-75
2021/01/05 10:54:41;;;;;;;2.22;2.03;;;-11.80;88.20;;;;;;4994983;28;20018;-77
2021/01/05 10:57:07;;;;;;;2.42;2.05;;;-11.80;88.40;;;;;;4994788;28;20041;-76
2021/01/05 10:59:34;;;;;;;3.30;2.33;;;-11.80;88.60;;;;;;4994853;28;20022;-75
2021/01/05 11:02:02;;;;;;;2.45;1.92;;;-11.80;89.00;;;;;;4994783;28;20027;-76
2021/01/05 11:04:31;;;;;;;2.75;2.33;;;-11.70;89.20;;;;;;4994923;28;20022;-77
2021/01/05 11:07:11;;;;;;;3.75;2.28;;;-11.70;89.20;;;;;;4994343;28;20026;-77
2021/01/05 11:09:38;;;;;;;3.60;2.55;;;-11.70;89.00;;;;;;4991778;28;20113;-74
2021/01/05 11:12:06;;;;;;;3.85;2.30;;;-11.70;89.00;;;;;;4992216;28;20036;-78
2021/01/05 11:14:33;;;;;;;2.47;2.28;;;-11.70;89.20;;;;;;4992807;28;20073;-75
2021/01/05 11:16:59;;;;;;;2.60;2.08;;;-11.70;89.00;;;;;;4990963;28;20036;-77
2021/01/05 11:19:25;;;;;;;2.92;1.90;;;-11.70;89.70;;;;;;4993581;28;20132;-74
2021/01/05 11:21:54;;;;;;;5.38;3.05;;;-11.70;89.70;;;;;;4992500;28;20073;-75
2021/01/05 11:24:20;;;;;;;3.95;3.20;;;-11.70;89.80;;;;;;4993749;28;20026;-77
2021/01/05 11:26:46;;;;;;;4.43;3.28;;;-11.60;90.10;;;;;;4994005;28;20038;-75
2021/01/05 11:29:12;;;;;;;4.53;3.00;;;-11.50;90.00;;;;;;4993617;28;20032;-77
2021/01/05 11:31:38;;;;;;;3.05;2.47;;;-11.50;89.60;;;;;;4992680;28;20109;-79
2021/01/05 11:34:04;;;;;;;2.63;2.40;;;-11.50;89.30;;;;;;4993984;28;20478;-75
2021/01/05 11:36:30;;;;;;;2.22;2.03;;;-11.50;89.70;;;;;;4993754;28;20450;-76
2021/01/05 11:38:57;;;;;;;1.80;1.70;;;-11.50;90.00;;;;;;4993168;28;20058;-77
2021/01/05 11:41:32;;;;;;;1.90;1.80;;;-11.40;89.80;;;;;;4993678;28;20501;-75
2021/01/05 11:43:58;;;;;;;2.75;2.10;;;-11.30;89.20;;;;;;4993719;28;20511;-74
2021/01/05 11:46:25;;;;;;;2.15;1.95;;;-11.30;88.60;;;;;;4980599;28;20106;-73
2021/01/05 11:48:52;;;;;;;2.00;1.88;;;-11.40;88.30;;;;;;4992794;28;20022;-74
2021/01/05 11:51:26;;;;;;;1.90;1.80;;;-11.40;88.80;;;;;;4992995;28;20036;-74
2021/01/05 11:53:52;;;;;;;1.75;1.65;;;-11.40;89.00;;;;;;4993454;28;20019;-74
2021/01/05 11:56:30;;;;;;;1.77;1.67;;;-11.40;89.10;;;;;;4993632;28;20064;-75
2021/01/05 11:58:56;;;;;;;2.10;1.70;;;-11.40;89.00;;;;;;4993039;28;20018;-74
2021/01/05 12:01:22;;;;;;;2.05;1.88;;;-11.50;88.60;;;;;;4992873;28;20030;-75
2021/01/05 12:03:48;;;;;;;2.95;2.20;;;-11.50;88.80;;;;;;4992860;28;20060;-75
2021/01/05 12:06:20;;;;;;;2.75;2.35;;;-11.50;89.20;;;;;;4991225;28;20073;-75
2021/01/05 12:08:47;;;;;;;3.63;2.65;;;-11.50;89.50;;;;;;4992756;28;20113;-75
2021/01/05 12:11:21;;;;;;;3.80;2.40;;;-11.50;89.70;;;;;;4992759;28;20798;-75
2021/01/05 12:13:47;;;;;;;2.45;1.92;;;-11.40;90.00;;;;;;4992975;28;20026;-74
2021/01/05 12:16:34;;;;;;;2.30;2.10;;;-11.40;89.20;;;;;;4993686;28;20056;-74
2021/01/05 12:19:02;;;;;;;2.03;1.92;;;-11.40;88.90;;;;;;4992761;28;20046;-75
2021/01/05 12:21:30;;;;;;;2.90;2.25;;;-11.40;88.50;;;;;;4992753;28;20046;-75
2021/01/05 12:23:56;;;;;;;2.28;2.08;;;-11.50;88.40;;;;;;4992948;28;20034;-75
2021/01/05 12:26:33;;;;;;;2.35;1.77;;;-11.50;88.50;;;;;;4992620;28;20109;-76
2021/01/05 12:29:01;;;;;;;2.80;2.22;;;-11.50;88.90;;;;;;4992869;28;20026;-74
2021/01/05 12:31:27;;;;;;;2.17;2.00;;;-11.50;89.00;;;;;;4992681;28;20022;-76
2021/01/05 12:33:54;;;;;;;2.25;2.05;;;-11.60;88.90;;;;;;4992887;28;20027;-74
2021/01/05 12:36:40;;;;;;;4.95;2.28;;;-11.60;89.30;;;;;;4992706;28;20030;-75
2021/01/05 12:39:08;;;;;;;2.15;2.05;;;-11.60;89.10;;;;;;4992662;28;20122;-75
2021/01/05 12:41:38;;;;;;;2.65;2.17;;;-11.60;89.10;;;;;;4992352;28;20070;-73
2021/01/05 12:44:07;;;;;;;2.70;1.92;;;-11.60;89.10;;;;;;4992839;28;20026;-75
2021/01/05 12:46:35;;;;;;;2.67;2.03;;;-11.50;89.10;;;;;;4992536;28;20109;-74
2021/01/05 12:49:02;;;;;;;2.13;1.92;;;-11.50;88.40;;;;;;4991218;28;20022;-74
2021/01/05 12:51:33;;;;;;;1.60;1.50;;;-11.50;88.40;;;;;;4992704;28;20105;-74
2021/01/05 12:53:58;;;;;;;;;;;-11.60;88.30;;;;;;4992809;28;20033;-76
2021/01/05 12:56:25;;;;;;;2.85;2.08;;;-11.60;88.00;;;;;;4992411;28;19905;-76
2021/01/05 12:58:51;;;;;;;1.92;1.83;;;-11.70;88.30;;;;;;4992714;28;20105;-70
2021/01/05 13:01:18;;;;;;;1.85;1.75;;;-10.20;99.90;;;;;;4991995;28;20496;-70
2021/01/05 13:03:46;;;;;;;2.80;2.20;;;-9.60;99.90;;;;;;4992692;28;20030;-70
2021/01/05 13:06:12;;;;;;;1.85;1.75;;;-10.10;99.90;;;;;;4992289;28;20489;-70
2021/01/05 13:08:39;;;;;;;1.80;1.70;;;-10.70;98.50;;;;;;4992367;28;20038;-71
2021/01/05 13:11:27;;;;;;;2.13;1.77;;;-11.00;95.20;;;;;;4992185;28;20034;-70
2021/01/05 13:13:53;;;;;;;2.40;1.83;;;-11.20;92.80;;;;;;4992324;28;20106;-70
2021/01/05 13:16:28;;;;;;;2.30;1.98;;;-11.30;91.90;;;;;;4991913;28;20118;-70
2021/01/05 13:18:56;;;;;;;2.35;1.98;;;-11.30;91.60;;;;;;4990336;28;20081;-70
2021/01/05 13:21:37;;;;;;;1.70;1.60;;;-11.30;91.00;;;;;;4991217;28;20034;-70
2021/01/05 13:24:05;;;;;;;2.13;1.92;;;-11.40;90.60;;;;;;4991837;28;20101;-70
2021/01/05 13:26:31;;;;;;;1.70;1.60;;;-11.40;90.40;;;;;;4992109;28;20034;-70
2021/01/05 13:28:57;;;;;;;1.83;1.73;;;-11.10;99.90;;;;;;4992339;28;20110;-72
2021/01/05 13:31:24;;;;;;;2.50;1.65;;;-10.60;99.90;;;;;;4992911;28;20486;-75
2021/01/05 13:33:50;;;;;;;1.90;1.80;;;-10.70;98.20;;;;;;4992114;28;20429;-74
2021/01/05 13:36:24;;;;;;;2.58;1.80;;;-10.90;92.50;;;;;;4992151;28;20421;-81
2021/01/05 13:38:51;;;;;;;1.90;1.80;;;-11.00;90.80;;;;;;4992837;28;20045;-73
2021/01/05 13:41:31;;;;;;;1.67;1.58;;;-11.10;90.50;;;;;;4996163;28;20772;-84
2021/01/05 13:43:58;;;;;;;1.80;1.70;;;-11.20;90.30;;;;;;4996164;28;20389;-75
2021/01/05 13:46:30;;;;;;;2.10;1.90;;;-11.20;90.10;;;;;;4995357;28;20509;-78
2021/01/05 13:48:56;;;;;;;3.80;2.10;;;-11.20;89.70;;;;;;4993430;28;20474;-80
2021/01/05 13:51:31;;;;;;;2.00;1.90;;;-11.20;88.60;;;;;;4995035;28;20500;-80
2021/01/05 13:53:57;;;;;;;3.20;2.38;;;-11.30;88.70;;;;;;4993098;28;20424;-75
2021/01/05 13:56:23;;;;;;;14.65;7.93;;;-11.30;88.40;;;;;;4995197;28;20041;-80
2021/01/05 13:58:51;;;;;;;7.18;5.22;;;-11.40;87.70;;;;;;4996622;28;20030;-79
2021/01/05 14:01:18;;;;;;;4.63;3.90;;;-11.50;87.50;;;;;;4996201;28;20587;-85
2021/01/05 14:03:45;;;;;;;4.40;3.00;;;-11.60;87.80;;;;;;4996099;28;20034;-86
2021/01/05 14:06:24;;;;;;;2.20;2.03;;;-11.60;87.80;;;;;;4995823;28;20101;-84
2021/01/05 14:08:51;;;;;;;2.40;2.20;;;-11.60;88.40;;;;;;4993626;28;20018;-82
2021/01/05 14:11:20;;;;;;;2.58;2.15;;;-11.50;88.20;;;;;;4994761;28;20029;-83
2021/01/05 14:13:46;;;;;;;3.42;2.50;;;-11.50;87.60;;;;;;4994986;28;20033;-84
2021/01/05 14:16:17;;;;;;;4.55;2.85;;;-11.60;87.40;;;;;;4996224;28;20022;-85
2021/01/05 14:18:46;;;;;;;5.55;3.15;;;-11.60;87.40;;;;;;4995939;28;20065;-75
2021/01/05 14:21:22;;;;;;;3.92;2.75;;;-11.70;87.50;;;;;;4995200;28;20604;-75
2021/01/05 14:23:48;;;;;;;3.83;2.55;;;-11.70;87.80;;;;;;4995431;28;20489;-75
2021/01/05 14:26:15;;;;;;;2.47;2.28;;;-11.60;87.80;;;;;;4992953;28;20046;-74
2021/01/05 14:28:41;;;;;;;2.08;1.70;;;-11.70;87.80;;;;;;4994756;28;20023;-74
2021/01/05 14:31:11;;;;;;;1.80;1.70;;;-11.60;88.00;;;;;;4994779;28;20077;-76
2021/01/05 14:33:38;;;;;;;1.83;1.73;;;-11.60;87.80;;;;;;4995242;28;20022;-77
2021/01/05 14:36:04;;;;;;;1.90;1.73;;;-11.60;87.60;;;;;;4995118;28;20080;-75
2021/01/05 14:38:30;;;;;;;2.25;2.13;;;-11.60;87.90;;;;;;4995184;28;20033;-74
2021/01/05 14:40:55;;;;;;;4.90;3.72;;;-11.60;88.00;;;;;;4994880;28;20038;-74
2021/01/05 14:43:21;;;;;;;2.30;2.10;;;-11.60;87.30;;;;;;4994974;28;20018;-75
2021/01/05 14:45:47;;;;;;;2.10;2.00;;;-11.00;99.90;;;;;;4994703;28;20544;-75
2021/01/05 14:48:13;;;;;;;2.25;2.10;;;-10.80;99.90;;;;;;4994984;28;20022;-73
2021/01/05 14:50:38;;;;;;;1.80;1.50;;;-11.10;92.20;;;;;;4993983;28;20057;-74
2021/01/05 14:53:04;;;;;;;2.25;2.00;;;-11.30;89.80;;;;;;4994772;28;20031;-75
2021/01/05 14:55:30;;;;;;;1.92;1.83;;;-11.50;87.60;;;;;;4994974;28;20026;-74
2021/01/05 14:57:56;;;;;;;2.05;1.85;;;-11.60;87.50;;;;;;4994383;28;20026;-74
2021/01/05 15:00:22;;;;;;;2.00;1.73;;;-11.70;87.60;;;;;;4993919;28;20046;-72
2021/01/05 15:02:47;;;;;;;1.95;1.80;;;-11.70;87.10;;;;;;4993987;28;20038;-72
2021/01/05 15:05:14;;;;;;;2.35;2.13;;;-11.70;86.90;;;;;;4993872;28;20038;-71
2021/01/05 15:07:40;;;;;;;2.95;2.65;;;-11.80;86.40;;;;;;4993875;28;20041;-72
2021/01/05 15:10:06;;;;;;;2.78;2.50;;;-11.90;86.10;;;;;;4993945;28;20030;-73
2021/01/05 15:12:32;;;;;;;2.70;2.50;;;-12.00;86.40;;;;;;4994181;28;20101;-68
2021/01/05 15:14:58;;;;;;;2.58;2.35;;;-12.00;87.20;;;;;;4994865;28;20129;-68
2021/01/05 15:17:24;;;;;;;2.67;2.30;;;-12.00;86.80;;;;;;4994414;28;20045;-70
2021/01/05 15:19:49;;;;;;;4.43;2.20;;;-12.00;87.10;;;;;;4994299;28;20046;-70
2021/01/05 15:22:15;;;;;;;3.05;2.00;;;-12.00;87.00;;;;;;4994226;28;20453;-69
2021/01/05 15:24:41;;;;;;;2.25;2.08;;;-12.00;87.10;;;;;;4994073;28;20105;-69
2021/01/05 15:27:06;;;;;;;2.42;2.20;;;-12.00;87.00;;;;;;4993773;28;20378;-69
2021/01/05 15:29:32;;;;;;;5.15;3.00;;;-12.10;87.20;;;;;;4994054;28;20053;-69
2021/01/05 15:31:58;;;;;;;9.05;4.70;;;-12.10;88.20;;;;;;4993899;28;20019;-69
2021/01/05 15:34:27;;;;;;;6.22;3.47;;;-12.00;89.10;;;;;;4992317;28;20101;-69
2021/01/05 15:36:54;;;;;;;2.60;2.13;;;-11.90;89.20;;;;;;4991687;28;20027;-69
2021/01/05 15:39:25;;;;;;;1.90;1.80;;;-11.90;89.30;;;;;;4995985;28;20433;-72
2021/01/05 15:41:53;;;;;;;4.20;2.95;;;-12.00;89.00;;;;;;4994442;28;20060;-71
2021/01/05 15:44:21;;;;;;;4.18;2.40;;;-12.00;90.10;;;;;;4994052;28;20026;-70
2021/01/05 15:46:47;;;;;;;2.92;2.63;;;-11.90;90.70;;;;;;4993852;28;20027;-71
2021/01/05 15:49:12;;;;;;;43.28;16.67;;;-11.80;91.00;;;;;;4993673;28;20029;-71
2021/01/05 15:51:42;;;;;;;31.73;10.70;;;-11.80;91.10;;;;;;4993953;28;20026;-71
2021/01/05 15:54:10;;;;;;;6.15;2.67;;;-11.70;91.20;;;;;;4993702;28;20049;-71
2021/01/05 15:56:36;;;;;;;2.17;2.03;;;-11.70;91.20;;;;;;4993634;28;20045;-71
2021/01/05 15:59:03;;;;;;;5.13;2.05;;;-11.70;91.20;;;;;;4993607;28;20019;-69
2021/01/05 16:01:32;;;;;;;6.75;3.70;;;-11.70;91.10;;;;;;4991557;28;20030;-72
2021/01/05 16:03:59;;;;;;;12.43;4.97;;;-11.60;91.60;;;;;;4991602;28;20599;-71
2021/01/05 16:06:26;;;;;;;8.20;3.92;;;-11.60;91.70;;;;;;4992245;28;20034;-74
2021/01/05 16:08:54;;;;;;;4.28;2.60;;;-11.50;91.80;;;;;;4992333;28;20040;-74
2021/01/05 16:11:20;;;;;;;4.35;2.38;;;-11.50;91.50;;;;;;4992412;28;20029;-74
2021/01/05 16:13:46;;;;;;;1.92;1.83;;;-11.50;91.40;;;;;;4992731;28;20031;-74
2021/01/05 16:16:12;;;;;;;2.20;2.00;;;-11.40;91.50;;;;;;4992058;28;20536;-73
2021/01/05 16:18:38;;;;;;;2.67;2.17;;;-11.40;91.50;;;;;;4992614;28;20074;-71
2021/01/05 16:21:04;;;;;;;3.15;2.40;;;-11.40;91.60;;;;;;4993140;28;20042;-72
2021/01/05 16:23:30;;;;;;;2.13;1.98;;;-11.40;91.50;;;;;;4993185;28;20081;-72
2021/01/05 16:25:57;;;;;;;2.75;2.15;;;-11.40;91.70;;;;;;4993408;28;20032;-72
2021/01/05 16:28:23;;;;;;;2.30;2.08;;;-11.30;91.90;;;;;;4993068;28;20058;-72
2021/01/05 16:30:49;;;;;;;3.25;1.98;;;-11.30;91.80;;;;;;4991904;28;20027;-73
2021/01/05 16:33:15;;;;;;;3.05;2.10;;;-11.20;91.50;;;;;;4993253;28;20023;-73
2021/01/05 16:35:40;;;;;;;2.20;1.80;;;-11.30;91.30;;;;;;4993170;28;20393;-72
2021/01/05 16:38:07;;;;;;;2.08;1.95;;;-11.20;91.20;;;;;;4993356;28;20114;-72
2021/01/05 16:40:35;;;;;;;4.57;2.40;;;-11.30;90.90;;;;;;4993349;28;20030;-72
2021/01/05 16:43:00;;;;;;;3.78;2.55;;;-11.30;91.00;;;;;;4993261;28;20410;-72
2021/01/05 16:45:26;;;;;;;2.85;2.63;;;-11.30;91.00;;;;;;4993145;28;20034;-72
2021/01/05 16:47:52;;;;;;;3.25;1.92;;;-11.40;90.60;;;;;;4992933;28;20030;-72
2021/01/05 16:50:25;;;;;;;4.35;3.03;;;-11.40;90.30;;;;;;4992847;28;20359;-71
2021/01/05 16:52:52;;;;;;;3.35;2.95;;;-11.50;90.10;;;;;;4992897;28;20101;-71
2021/01/05 16:55:18;;;;;;;3.97;2.20;;;-11.50;90.20;;;;;;4992721;28;20084;-71
2021/01/05 16:57:44;;;;;;;3.75;1.98;;;-11.60;90.30;;;;;;4992937;28;20122;-70
2021/01/05 17:00:15;;;;;;;6.97;2.03;;;-11.60;90.00;;;;;;4992238;28;20541;-69
2021/01/05 17:02:41;;;;;;;2.70;2.10;;;-11.70;89.60;;;;;;4992362;28;20036;-72
2021/01/05 17:05:08;;;;;;;1.98;1.77;;;-11.80;89.40;;;;;;4992491;28;20436;-72
2021/01/05 17:07:33;;;;;;;1.98;1.80;;;-11.90;89.20;;;;;;4991305;28;20034;-71
2021/01/05 17:09:59;;;;;;;3.63;1.90;;;-11.50;99.90;;;;;;4992880;28;20113;-71
2021/01/05 17:12:25;;;;;;;2.95;1.90;;;-11.40;97.70;;;;;;4993791;28;20385;-71
2021/01/05 17:14:51;;;;;;;3.72;2.13;;;-11.60;92.40;;;;;;4999069;28;20089;-71
2021/01/05 17:17:16;;;;;;;1.92;1.83;;;-11.60;91.20;;;;;;4999207;28;20073;-71
2021/01/05 17:19:46;;;;;;;3.35;1.95;;;-11.70;90.70;;;;;;4998821;28;20549;-71
2021/01/05 17:22:14;;;;;;;2.10;2.00;;;-11.70;90.20;;;;;;4999190;28;20437;-71
2021/01/05 17:24:41;;;;;;;1.88;1.73;;;-11.70;90.00;;;;;;4999051;28;20065;-71
2021/01/05 17:27:17;;;;;;;6.30;3.25;;;-11.70;89.80;;;;;;4998903;28;20030;-71
2021/01/05 17:29:44;;;;;;;7.85;4.30;;;-11.80;90.00;;;;;;4998934;28;20054;-71
2021/01/05 17:32:10;;;;;;;5.80;3.53;;;-11.80;90.00;;;;;;4998782;28;20088;-71
2021/01/05 17:34:35;;;;;;;3.15;2.25;;;-11.80;90.10;;;;;;4999217;28;20540;-72
2021/01/05 17:37:02;;;;;;;2.58;2.25;;;-11.70;97.60;;;;;;4998844;28;20037;-71
2021/01/05 17:39:28;;;;;;;2.53;2.03;;;-11.30;99.90;;;;;;4998783;28;20417;-72
2021/01/05 17:41:55;;;;;;;3.65;2.03;;;-11.40;93.50;;;;;;4998781;28;20045;-72
2021/01/05 17:44:21;;;;;;;1.92;1.80;;;-11.50;91.40;;;;;;4998614;28;20034;-71
2021/01/05 17:46:47;;;;;;;1.88;1.77;;;-11.70;90.70;;;;;;4998027;28;20390;-71
2021/01/05 17:49:13;;;;;;;3.20;2.08;;;-11.80;90.00;;;;;;4997969;28;20028;-71
2021/01/05 17:51:39;;;;;;;4.95;2.30;;;-11.90;90.10;;;;;;4997811;28;20035;-71
2021/01/05 17:54:05;;;;;;;1.98;1.80;;;-11.90;90.50;;;;;;4998708;28;20027;-72
2021/01/05 17:56:35;;;;;;;1.60;1.50;;;-11.90;90.50;;;;;;4998706;28;20052;-71
2021/01/05 17:59:01;;;;;;;3.22;2.38;;;-11.90;90.50;;;;;;4998896;28;20019;-71
2021/01/05 18:01:27;;;;;;;2.78;2.28;;;-11.90;90.40;;;;;;4998536;28;20394;-71